Weather observations for the past three days for
College Park Airport
Imperial (Metric)
Date Time (edt) Wind (mph) Vis. (mi.) Weather Sky Cond. Temperature (ºF) Relative Humidity Wind Chill (°F) Heat Index (°F) Pressure Precipitation (in)
Air Dwpt 6 hour altimeter (in) sea level (mb) 1 hr 3 hr 6 hr
Max. Min.
08 05:55 Calm 10.00 Fair CLR 43 38.7 85% 29.97 0.0
08 05:35 SE 3 10.00 Fair CLR 44.1 38.8 82% 29.96 0.0
08 05:15 Calm 10.00 Fair CLR 45.5 38.3 76% 29.96 0.0
08 04:55 NW 6 10.00 Fair CLR 44.2 38.1 79% 41 29.96 0.0
08 04:35 Calm 10.00 Fair CLR 43.9 41.4 91% 29.95 0.0
08 04:15 NE 3 10.00 Fair CLR 45.5 42.1 88% 29.95 0.0
08 03:55 Calm 10.00 Fair CLR 45.3 41.9 88% 29.94 0.0
08 03:35 Calm 10.00 Fair CLR 45.5 43.9 94% 29.93 0.0
08 03:15 Calm 10.00 Fair CLR 46.6 44.8 93% 29.92 0.0
08 02:55 Calm 10.00 Fair CLR 46.8 44.2 91% 29.91 0.0
08 02:35 Calm 10.00 Fair CLR 47.3 44.2 89% 29.91 0.0
08 02:15 Calm 10.00 Fair CLR 48.7 45.1 87% 29.91 0.0
08 01:55 Calm 10.00 Fair CLR 48.2 45.7 58.1 47.8 91% 29.91 0.0
08 01:35 Calm 10.00 Fair CLR 50 46 86% 29.9 0.0
08 01:15 Calm 10.00 Fair CLR 51.1 45.9 82% 29.9 0.0
08 00:55 W 3 10.00 Fair CLR 52.7 46.2 79% 29.89 0.0
08 00:35 SW 3 10.00 Fair CLR 53.4 46.2 77% 29.89 0.0
08 00:15 SW 5 10.00 Fair CLR 52.9 46.4 79% 29.88 0.0
07 23:55 Calm 10.00 Fair CLR 53.8 46 75% 29.88 0.0
07 23:35 SW 3 10.00 Fair CLR 54.9 45.9 72% 29.88 0.0
07 23:15 S 3 10.00 Partly Cloudy SCT090 54.7 46 73% 29.88 0.0
07 22:55 Calm 10.00 Overcast OVC090 54.7 45.9 72% 29.87 0.0
07 22:35 Calm 10.00 Mostly Cloudy BKN085 54.3 45.5 72% 29.87 0.0
07 22:15 S 5 10.00 Partly Cloudy SCT095 54.3 45.1 71% 29.87 0.0
07 21:55 S 5 10.00 Partly Cloudy SCT095 54.5 44.8 70% 29.87 0.0
07 21:15 SW 3 10.00 Fair CLR 55.4 44.1 66% 29.86 0.0
07 20:55 S 6 10.00 Fair CLR 56.1 44.1 64% 29.85 0.0
07 20:35 S 5 10.00 Fair CLR 56.7 43.9 62% 29.84 0.0
07 20:15 S 7 10.00 Fair CLR 57.4 43.5 60% 29.84 0.0
07 19:55 S 5 10.00 Fair CLR 58.3 42.8 64.6 58.1 57% 29.83 0.0
07 19:35 S 6 10.00 Fair CLR 59.4 42.3 53% 29.82 0.0
07 19:15 S 6 10.00 Fair CLR 60.3 41.9 51% 29.81 0.0
07 18:55 S 8 10.00 Fair CLR 60.6 41.4 49% 29.81 0.0
07 18:35 S 7 10.00 Fair CLR 61.5 41.5 48% 29.8 0.0
07 18:15 S 6 10.00 Fair CLR 62.4 41.4 46% 29.8 0.0
07 17:55 S 7 10.00 Fair CLR 62.6 41.9 47% 29.8 0.0
07 17:35 SW 8 10.00 Partly Cloudy SCT075 63 41.7 46% 29.8 0.0
07 17:15 SW 7 10.00 Fair CLR 63.1 39.7 42% 29.8 0.0
07 16:55 SW 5 10.00 Fair CLR 63.7 40.1 42% 29.8 0.0
07 16:35 S 8 10.00 Fair CLR 62.6 39.4 43% 29.8 0.0
07 16:15 SE 8 10.00 Fair CLR 62.2 39.6 43% 29.8 0.0
07 15:55 SW 6 10.00 Partly Cloudy SCT110 63.5 37.9 39% 29.79 0.0
07 15:35 SE 6 10.00 Fair CLR 62.6 37.6 40% 29.81 0.0
07 15:15 S 3 10.00 Partly Cloudy SCT095 63.1 37.4 39% 29.82 0.0
07 14:55 E 3 10.00 Partly Cloudy SCT095 61.5 38.7 43% 29.82 0.0
07 14:35 SW 6 10.00 Mostly Cloudy BKN095 62.1 37.6 40% 29.84 0.0
07 14:15 SE 3 10.00 Overcast OVC085 60.6 37.9 43% 29.84 0.0
07 13:55 SE 5 10.00 Overcast OVC085 59.5 36.7 59.9 54.5 43% 29.84 0.0
07 13:35 SE 5 10.00 Overcast OVC085 59 35.2 41% 29.86 0.0
07 13:15 E 5 10.00 Mostly Cloudy BKN085 BKN110 59.2 37.9 45% 29.87 0.0
07 12:55 Calm 10.00 Mostly Cloudy BKN085 BKN110 58.3 37.2 46% 29.87 0.0
07 12:35 NE 6 10.00 Overcast OVC075 57.9 36 44% 29.88 0.0
07 12:15 Calm 10.00 Overcast SCT033 SCT046 OVC075 57.6 38.1 48% 29.89 0.0
07 11:55 N 6 10.00 Overcast SCT033 SCT050 OVC075 56.8 37.8 49% 29.9 0.0
07 11:35 NE 6 10.00 Overcast OVC065 56.5 38.1 50% 29.91 0.0
07 11:15 N 6 10.00 Overcast OVC065 56.3 38.1 51% 29.91 0.0
07 10:55 NE 5 10.00 Overcast OVC065 55.8 40.8 57% 29.92 0.0
07 10:35 N 3 10.00 Overcast OVC065 55 41 59% 29.92 0.0
07 10:15 N 7 10.00 Overcast OVC055 54.7 39.7 57% 29.92 0.0
07 09:55 N 6 10.00 Overcast OVC055 54.9 39 55% 29.93 0.0
07 09:35 NW 7 10.00 Overcast OVC055 55 39.4 56% 29.93 0.0
07 09:15 N 8 10.00 Overcast OVC055 54.9 39.4 56% 29.92 0.0
07 08:55 NW 5 10.00 Overcast OVC055 54.7 43.3 66% 29.93 0.0
07 08:35 NW 5 10.00 Overcast OVC055 54.7 45 70% 29.93 0.0
07 08:15 NW 5 10.00 Overcast OVC055 55.2 47.3 75% 29.92 0.0
07 07:55 N 8 10.00 Overcast OVC049 55.2 48.2 57.2 54.5 77% 29.91 0.0
07 07:35 NW 5 10.00 Overcast OVC049 55 50 83% 29.91 0.0
07 07:15 N 5 10.00 Overcast OVC049 54.9 50.4 85% 29.91 0.0
07 06:55 N 3 10.00 Overcast OVC049 54.9 50 84% 29.91 0.0
07 06:35 N 3 10.00 Overcast OVC049 54.7 50.2 85% 29.9 0.0
07 06:15 NW 5 10.00 Overcast OVC049 54.9 50.7 86% 29.9 0.0
07 05:55 N 3 10.00 Overcast OVC047 54.9 51.4 88% 29.89 0.0
07 05:35 Calm 10.00 Overcast OVC047 54.7 51.1 88% 29.89 0.0
07 05:15 N 3 10.00 Overcast OVC047 55 51.4 88% 29.89 0.0
07 04:55 Calm 10.00 Overcast OVC045 55 51.3 87% 29.89 0.0
07 04:35 Calm 10.00 Overcast OVC043 55.2 50.7 85% 29.88 0.0
07 04:15 N 5 10.00 Overcast OVC043 55.4 50.5 84% 29.87 0.0
07 03:55 N 6 10.00 Overcast SCT018 BKN028 OVC043 55.6 50.5 83% 29.86 0.0
07 03:35 N 8 10.00 Light Drizzle SCT017 OVC041 56.5 52.7 87% 29.85 0.0
07 03:15 N 3 10.00 Overcast OVC041 57 54 90% 29.85 0.0
07 02:55 N 5 10.00 Overcast OVC039 57 54.1 90% 29.86 0.0
07 02:35 N 6 10.00 Overcast SCT032 OVC039 56.8 53.8 90% 29.86 0.0
07 02:15 N 8 10.00 Light Rain SCT026 OVC035 57 54 90% 29.85 0.0
07 01:55 N 7 10.00 Overcast BKN024 BKN032 OVC037 57.4 54 69.4 57.2 88% 29.85 0.0 0.01 0.02
07 01:35 N 13 G 20 10.00 Overcast OVC037 58.1 54.5 88% 29.86 0.0 0.01
07 01:15 N 6 10.00 Light Rain SCT028 OVC037 58.8 54.1 85% 29.85 0.0 0.01
07 00:55 NW 7 10.00 Light Rain SCT028 OVC035 59.9 53.8 80% 29.85 0.0 0.01
07 00:35 NW 6 10.00 Light Rain OVC035 62.8 52.5 69% 29.86 0.0
07 00:15 NW 8 10.00 Overcast OVC033 63.3 53.1 69% 29.85 0.0
06 23:55 N 6 10.00 Overcast SCT022 SCT026 OVC033 62.8 53.6 72% 29.83 0.0
06 23:15 NW 5 10.00 Overcast OVC031 64.8 56.1 74% 29.83 0.0
06 22:55 NW 5 10.00 Overcast OVC031 65.8 55.4 69% 29.83 0.0
06 22:35 NW 8 10.00 Overcast OVC027 66.7 57.4 72% 29.82 0.0
06 22:15 NW 6 10.00 Overcast OVC025 67.6 57.2 69% 29.81 0.0
06 21:55 NW 10 10.00 Overcast OVC025 68.2 58.6 72% 29.81 0.0
06 21:35 Calm 10.00 Overcast BKN029 OVC040 68 61.7 80% 29.81 0.0
06 21:15 Calm 10.00 Overcast BKN029 OVC038 68.5 61.7 79% 29.81 0.0
06 20:55 Calm 10.00 Overcast SCT033 BKN038 OVC046 67.5 61.7 82% 29.81 0.0
06 20:35 Calm 10.00 Overcast BKN050 OVC065 67.5 61.5 81% 29.8 0.0
06 20:15 Calm 10.00 Overcast SCT028 SCT049 OVC065 68.4 61.7 79% 29.8 0.0
06 19:55 Calm 10.00 Overcast BKN027 BKN046 OVC060 69.4 60.6 71.8 67.1 74% 29.8 0.0
06 19:35 S 5 10.00 Overcast SCT027 BKN070 OVC075 69.6 60.6 73% 29.79 0.0
06 19:15 Calm 10.00 Overcast SCT027 OVC070 69.8 60.6 73% 29.78 0.0
06 18:55 S 3 10.00 Overcast SCT025 BKN065 OVC085 70 60.6 72% 29.78 0.0
06 18:35 S 6 10.00 Mostly Cloudy SCT025 SCT075 BKN090 70 60.4 72% 29.78 0.0
06 18:15 S 5 10.00 Overcast SCT027 OVC090 70.2 60.6 72% 29.78 0.0
06 17:35 S 8 10.00 Overcast OVC025 70.5 60.3 70% 29.78 0.0
06 17:15 S 7 10.00 Mostly Cloudy BKN023 71.2 60.8 70% 29.77 0.0
06 16:55 S 7 10.00 Overcast OVC023 70.5 60.3 70% 29.77 0.0
06 16:35 S 9 10.00 Overcast OVC023 70 60.1 71% 29.76 0.0
06 16:15 S 7 10.00 Overcast OVC021 70 60.1 71% 29.77 0.0
06 15:55 S 10 G 17 10.00 Overcast OVC021 69.6 59.7 71% 29.77 0.0
06 15:35 S 7 10.00 Overcast OVC021 69.3 59.5 71% 29.77 0.0
06 15:15 S 8 10.00 Mostly Cloudy BKN021 69.8 59.9 71% 29.78 0.0
06 14:55 S 7 10.00 Partly Cloudy SCT021 68.5 59.5 73% 29.79 0.0
06 14:35 SW 7 10.00 Overcast OVC021 68 59.2 74% 29.79 0.0
06 14:15 SW 9 10.00 Overcast OVC019 68 59 73% 29.8 0.0
06 13:55 S 12 G 18 10.00 Overcast OVC019 66.9 58.8 67.1 61.5 75% 29.8 0.0 0.19
06 13:35 S 9 G 18 10.00 Overcast OVC019 66.2 58.8 77% 29.8 0.0
06 13:15 S 8 G 21 10.00 Overcast OVC017 65.5 58.6 79% 29.81 0.0
06 12:55 S 7 G 18 10.00 Overcast OVC015 65.1 59.4 82% 29.81 0.0
06 12:35 S 8 G 17 10.00 Overcast OVC015 64.2 59.2 84% 29.82 0.0
06 12:15 S 13 10.00 Overcast OVC013 63.9 59.7 86% 29.82 0.0
06 11:55 S 10 10.00 Overcast OVC015 63.1 59.7 89% 29.82 0.0 0.03
06 11:35 S 9 10.00 Light Rain BKN015 BKN048 OVC065 62.2 59.5 91% 29.83 0.0 0.03
06 11:15 S 9 7.00 Light Rain SCT048 BKN050 OVC095 62.2 59.4 90% 29.83 0.0 0.01
06 10:55 S 8 10.00 Light Rain OVC065 61.9 59 90% 29.84 0.0 0.09 0.16
06 10:15 S 6 5.00 Heavy Rain Fog/Mist SCT019 SCT075 OVC095 62.1 58.5 88% 29.84 0.0 0.04
06 09:55 S 7 7.00 Rain SCT080 OVC095 62.4 58.3 86% 29.85 0.0 0.07
06 09:35 S 7 7.00 Rain BKN070 OVC095 63.5 57.6 81% 29.86 0.0 0.02
06 09:15 S 6 10.00 Light Rain BKN070 OVC090 64.4 57.4 78% 29.85 0.0
06 08:55 S 7 10.00 Light Rain BKN100 OVC110 64.4 57.4 78% 29.84 0.0
06 08:35 S 8 10.00 Light Rain OVC100 65.1 57 75% 29.84 0.0
06 08:15 S 5 10.00 Light Rain OVC100 65.8 56.1 71% 29.85 0.0
06 07:55 SW 6 10.00 Overcast OVC110 66 55.9 71.4 66 70% 29.85 0.0
06 07:35 S 10 G 18 10.00 Overcast OVC100 66.6 55.2 67% 29.84 0.0
06 07:15 S 10 G 17 10.00 Mostly Cloudy BKN100 BKN120 66.7 54.9 66% 29.83 0.0
06 06:55 S 8 10.00 Mostly Cloudy SCT090 BKN110 66.6 54.9 66% 29.83 0.0
06 06:35 S 9 10.00 Mostly Cloudy BKN110 66.6 54.7 66% 29.82 0.0
06 06:15 S 9 10.00 Partly Cloudy SCT120 66.7 54.7 65% 29.82 0.0
06 05:55 S 8 G 17 10.00 Fair CLR 66.7 54.7 65% 29.82 0.0
06 05:35 S 8 10.00 Fair CLR 66.9 54.9 65% 29.83 0.0
06 05:15 S 7 10.00 Fair CLR 66.9 54.9 65% 29.83 0.0
06 04:55 S 9 10.00 Fair CLR 67.3 54.9 65% 29.83 0.0
06 04:35 S 8 10.00 Fair CLR 67.8 54.9 63% 29.83 0.0
06 04:15 S 8 10.00 Fair CLR 68.4 54.7 62% 29.83 0.0
06 03:55 S 9 10.00 Fair CLR 68.7 54.3 60% 29.82 0.0
06 03:35 S 8 10.00 Fair CLR 69.4 54 58% 29.83 0.0
06 03:15 S 9 10.00 Fair CLR 70 53.6 56% 29.83 0.0
06 02:55 S 7 G 16 10.00 Fair CLR 70.3 53.2 55% 29.84 0.0
06 02:35 S 7 10.00 Fair CLR 70.7 53.1 54% 29.84 0.0
06 02:15 S 8 10.00 Fair CLR 71.2 52.7 52% 29.84 0.0
06 01:55 S 7 10.00 Fair CLR 71.6 52.3 79.3 71.6 51% 29.84 0.0
06 01:35 S 9 G 16 10.00 Fair CLR 72 52 50% 29.85 0.0
06 01:15 S 7 10.00 Fair CLR 72.7 51.6 48% 29.85 0.0
06 00:55 S 6 10.00 Fair CLR 73.2 51.3 46% 29.85 0.0
06 00:35 S 7 10.00 Fair CLR 73.8 51.1 45% 29.85 0.0
06 00:15 S 8 G 18 10.00 Fair CLR 73.9 50.7 44% 29.85 0.0
05 23:55 S 10 G 20 10.00 Fair CLR 74.1 50.4 43% 29.85 0.0
05 23:35 S 8 G 20 10.00 Fair CLR 74.3 50.2 43% 29.85 0.0
05 23:15 S 8 10.00 Fair CLR 74.5 49.6 42% 29.85 0.0
05 22:55 S 10 G 20 10.00 Fair CLR 74.8 49.1 40% 29.85 0.0
05 22:35 S 9 10.00 Fair CLR 75.2 47.5 38% 77 29.85 0.0
05 22:15 S 9 10.00 Fair CLR 75.9 46.2 35% 78 29.85 0.0
05 21:55 S 10 G 17 10.00 Fair CLR 76.6 46.2 34% 78 29.85 0.0
05 21:35 S 7 G 17 10.00 Fair CLR 76.6 45.1 33% 78 29.84 0.0
05 21:15 S 8 10.00 Fair CLR 77 44.2 31% 78 29.84 0.0
05 20:55 S 8 10.00 Fair CLR 77.5 43.7 30% 78 29.83 0.0
05 20:35 S 8 10.00 Fair CLR 78.3 43.7 29% 78 29.82 0.0
05 20:15 S 12 G 21 10.00 Fair CLR 79.3 42.4 27% 79 29.82 0.0
05 19:55 S 7 10.00 Fair CLR 79.7 42.6 85.3 79.5 27% 79 29.81 0.0
05 19:35 S 10 G 17 10.00 Fair CLR 81.1 41 24% 80 29.81 0.0
05 19:15 S 9 G 16 10.00 Fair CLR 81.9 39.6 22% 80 29.81 0.0
05 18:55 S 9 10.00 Fair CLR 81.9 39.9 22% 80 29.81 0.0
05 18:35 S 10 G 20 10.00 Fair CLR 82.4 39.7 22% 80 29.81 0.0
05 18:15 S 13 G 21 10.00 Fair CLR 83.5 40.1 21% 81 29.81 0.0
05 17:55 S 13 G 26 10.00 Fair CLR 83.3 39.2 21% 81 29.81 0.0
05 17:35 S 8 G 21 10.00 Fair CLR 84 43.3 24% 82 29.8 0.0
05 17:15 S 10 G 21 10.00 Fair CLR 83.5 41.4 23% 81 29.8 0.0
05 16:35 SW 15 G 22 10.00 Fair CLR 84.9 42.6 23% 82 29.8 0.0
05 16:15 S 17 G 24 10.00 Fair CLR 84.6 43 23% 82 29.8 0.0
05 15:55 S 14 G 23 10.00 Fair CLR 84 42.6 23% 81 29.81 0.0
05 15:35 S 13 G 22 10.00 Fair CLR 84 43.9 24% 82 29.81 0.0
05 15:15 S 12 G 25 10.00 Fair CLR 83.8 43.7 24% 81 29.82 0.0
05 14:55 S 12 G 23 10.00 Fair CLR 83.3 43 24% 81 29.84 0.0
05 14:35 S 13 G 25 10.00 Fair CLR 83.1 45 26% 81 29.85 0.0
05 14:15 S 14 G 23 10.00 Fair CLR 82.4 45.1 27% 81 29.85 0.0
05 13:55 S 14 G 24 10.00 Fair CLR 81.9 46.2 82 65.5 29% 80 29.86 0.0
05 13:35 S 9 G 22 10.00 Fair CLR 81.3 47.8 31% 80 29.86 0.0
05 13:15 S 12 G 21 10.00 Fair CLR 81.3 48 31% 80 29.87 0.0
05 12:55 S 10 G 18 10.00 Fair CLR 79.9 47.8 33% 79 29.87 0.0
05 12:35 S 9 10.00 Fair CLR 79.2 49.5 35% 79 29.88 0.0
05 12:15 S 9 10.00 Fair CLR 78.6 49.1 36% 79 29.89 0.0
05 11:55 SW 9 10.00 Fair CLR 77.7 49.5 37% 78 29.9 0.0
05 11:15 S 8 10.00 Fair CLR 75.7 48.9 39% 78 29.9 0.0
05 10:55 S 7 10.00 Fair CLR 74.5 49.8 42% 29.9 0.0
05 10:35 S 9 10.00 Fair CLR 72.7 48.4 42% 29.9 0.0
05 10:15 S 7 10.00 Fair CLR 72.5 48.4 43% 29.91 0.0
05 09:55 S 7 10.00 Fair CLR 71.1 48 44% 29.9 0.0
05 09:35 S 6 10.00 Fair CLR 70.2 47.5 45% 29.91 0.0
05 09:15 S 6 10.00 Fair CLR 69.6 47.3 45% 29.91 0.0
05 08:55 SW 7 10.00 Fair CLR 68.2 46.6 46% 29.92 0.0
05 08:35 SW 6 10.00 Fair CLR 67.5 46.9 48% 29.92 0.0
05 08:15 S 5 10.00 Fair CLR 66.4 46.4 49% 29.91 0.0
05 07:55 S 6 10.00 Fair CLR 65.1 46.6 65.5 54.5 51% 29.9 0.0
05 07:35 SW 6 10.00 Fair CLR 64.6 46.2 52% 29.9 0.0
05 07:15 S 5 10.00 Fair CLR 63.9 46 53% 29.9 0.0
05 06:55 S 6 10.00 Fair CLR 63.7 46.2 53% 29.89 0.0
05 06:35 S 6 10.00 Fair CLR 62.8 45.9 54% 29.88 0.0
05 06:15 S 5 10.00 Fair CLR 62.6 45.9 55% 29.88 0.0
Date Time (edt) Wind (mph) Vis. (mi.) Weather Sky Cond. Air Dwpt Max. Min. Relative Humidity Wind Chill (°F) Heat Index (°F) altimeter (in) sea level (mb) 1 hr 3 hr 6 hr
6 hour
Temperature (ºF) Pressure Precipitation (in)